Time;durP1;ratioP1;P1;durP2;ratioP2;P2;SDS_P1;SDS_P2;PMS_P1;PMS_P2;Temp;Humidity;BMP_temperature;BMP_pressure;BME280_temperature;BME280_humidity;BME280_pressure;Samples;Min_cycle;Max_cycle;Signal;HPM_P1;HPM_P2
2022/05/08 00:00:38;;;;;;;13.38;7.60;;;;;;;8.64;65.71;100780.66;2294292;76;20967;-83
2022/05/08 00:03:41;;;;;;;13.68;8.43;;;;;;;8.63;65.57;100786.44;2287586;76;21096;-83
2022/05/08 00:06:43;;;;;;;15.72;8.85;;;;;;;8.60;65.68;100777.95;2297921;77;21002;-81
2022/05/08 00:09:46;;;;;;;14.43;10.70;;;;;;;8.55;65.71;100773.55;2297213;77;22258;-83
2022/05/08 00:12:47;;;;;;;15.93;10.25;;;;;;;8.50;65.82;100773.50;2296444;77;21290;-81
2022/05/08 00:15:48;;;;;;;17.00;10.55;;;;;;;8.51;65.89;100770.36;2294862;77;21040;-81
2022/05/08 00:18:49;;;;;;;14.20;8.88;;;;;;;8.45;66.31;100775.70;2300350;77;20953;-81
2022/05/08 00:21:50;;;;;;;18.37;9.75;;;;;;;8.34;66.26;100772.32;2294055;77;20940;-82
2022/05/08 00:24:52;;;;;;;13.40;9.33;;;;;;;8.24;66.38;100767.00;2297110;76;20991;-82
2022/05/08 00:27:53;;;;;;;15.55;10.20;;;;;;;8.18;66.49;100763.09;2291239;77;21358;-82
2022/05/08 00:30:54;;;;;;;16.50;11.15;;;;;;;8.10;66.76;100760.28;2294581;77;20983;-82
2022/05/08 00:33:55;;;;;;;15.78;10.13;;;;;;;8.05;67.00;100762.02;2295650;76;21026;-83
2022/05/08 00:36:56;;;;;;;16.05;10.63;;;;;;;8.01;67.17;100756.64;2297809;77;21582;-83
2022/05/08 00:39:58;;;;;;;13.62;8.55;;;;;;;8.02;67.47;100761.44;2293237;77;20976;-82
2022/05/08 00:43:33;;;;;;;17.35;10.18;;;;;;;8.02;67.89;100756.98;2288998;77;21730;-83
2022/05/08 00:46:34;;;;;;;16.12;9.23;;;;;;;7.98;68.03;100754.27;2297789;77;20993;-82
2022/05/08 00:49:35;;;;;;;14.25;10.20;;;;;;;7.91;67.99;100758.41;2278057;77;21025;-83
2022/05/08 00:52:38;;;;;;;15.23;9.40;;;;;;;7.88;67.87;100757.35;2283690;77;21034;-81
2022/05/08 00:55:40;;;;;;;16.35;9.75;;;;;;;7.88;68.07;100760.48;2287186;77;21007;-80
2022/05/08 00:58:44;;;;;;;14.07;9.20;;;;;;;7.78;68.28;100761.78;2284124;76;21618;-84
2022/05/08 01:01:45;;;;;;;20.97;9.48;;;;;;;7.74;68.10;100752.44;2278939;77;21552;-84
2022/05/08 01:04:46;;;;;;;14.18;9.23;;;;;;;7.71;68.33;100756.66;2284276;76;21022;-81
2022/05/08 01:07:47;;;;;;;;;;;;;;;7.68;68.32;100757.77;2283264;77;20967;-84
2022/05/08 01:10:48;;;;;;;;;;;;;;;7.65;68.53;100755.39;2288017;77;20141;-83
2022/05/08 01:13:50;;;;;;;15.75;9.55;;;;;;;7.56;68.63;100760.15;2277450;77;20392;-82
2022/05/08 01:16:51;;;;;;;13.13;9.10;;;;;;;7.49;68.51;100756.34;2284627;77;21030;-84
2022/05/08 01:19:51;;;;;;;;;;;;;;;7.48;68.65;100759.48;2284940;77;20975;-84
2022/05/08 01:22:55;;;;;;;14.43;9.43;;;;;;;7.47;68.48;100763.59;2280362;77;20137;-82
2022/05/08 01:25:58;;;;;;;16.17;9.88;;;;;;;7.43;68.13;100767.44;2284640;77;21062;-83
2022/05/08 01:29:01;;;;;;;16.45;10.72;;;;;;;7.33;68.53;100767.39;2284749;76;20980;-82
2022/05/08 01:32:03;;;;;;;16.25;9.80;;;;;;;7.29;68.82;100761.55;2283571;77;20999;-83
2022/05/08 01:35:07;;;;;;;20.62;10.00;;;;;;;7.24;68.76;100761.58;2284277;77;21022;-81
2022/05/08 01:38:10;;;;;;;14.55;9.75;;;;;;;7.23;68.89;100765.16;2289697;77;21072;-83
2022/05/08 01:41:11;;;;;;;16.30;8.98;;;;;;;7.21;69.05;100767.95;2273828;77;21047;-81
2022/05/08 01:44:12;;;;;;;;;;;;;;;7.18;68.65;100767.73;2277446;77;21463;-82
2022/05/08 01:50:32;;;;;;;14.30;9.85;;;;;;;7.07;68.87;100773.55;2224238;79;21057;-83
2022/05/08 01:53:35;;;;;;;;;;;;;;;7.05;69.17;100772.34;2225462;79;21059;-85
2022/05/08 01:56:36;;;;;;;11.63;7.80;;;;;;;7.07;69.58;100763.83;2224091;79;20129;-83
2022/05/08 01:59:36;;;;;;;;;;;;;;;7.03;69.50;100757.12;2226281;79;20976;-82
2022/05/08 02:02:38;;;;;;;13.30;8.58;;;;;;;7.02;69.75;100766.50;2221269;79;20138;-82
2022/05/08 02:05:41;;;;;;;12.55;9.35;;;;;;;6.99;69.41;100769.39;2225377;79;20956;-83
2022/05/08 02:08:42;;;;;;;16.40;9.38;;;;;;;6.96;69.38;100759.44;2226226;79;20948;-83
2022/05/08 02:11:43;;;;;;;13.00;9.05;;;;;;;6.93;69.57;100758.87;2225849;79;20980;-82
2022/05/08 02:14:45;;;;;;;14.70;10.75;;;;;;;6.88;69.49;100758.41;2220176;79;21035;-83
2022/05/08 02:17:47;;;;;;;15.55;10.08;;;;;;;6.81;69.93;100763.82;2222189;79;21348;-84
2022/05/08 02:20:47;;;;;;;15.55;10.25;;;;;;;6.79;70.17;100767.09;2226909;79;21101;-84
2022/05/08 02:23:48;;;;;;;;;;;;;;;6.76;70.20;100771.27;2232773;79;20951;-82
2022/05/08 02:26:49;;;;;;;15.18;10.50;;;;;;;6.64;70.01;100772.63;2224392;79;20142;-82
2022/05/08 02:29:51;;;;;;;;;;;;;;;6.63;70.30;100769.65;2227549;79;21035;-84
2022/05/08 02:32:54;;;;;;;14.68;10.13;;;;;;;6.59;70.36;100771.33;2228433;79;20099;-81
2022/05/08 02:35:55;;;;;;;17.30;11.60;;;;;;;6.56;70.37;100768.49;2223960;79;20963;-83
2022/05/08 02:38:56;;;;;;;;;;;;;;;6.49;70.39;100767.30;2228871;79;21347;-83
2022/05/08 02:41:57;;;;;;;13.48;9.45;;;;;;;6.46;70.58;100770.19;2226271;79;20165;-81
2022/05/08 02:44:58;;;;;;;15.20;10.55;;;;;;;6.43;70.34;100773.08;2223881;79;21441;-83
2022/05/08 02:47:59;;;;;;;;;;;;;;;6.42;70.60;100768.75;2237759;77;20999;-82
2022/05/08 02:51:00;;;;;;;14.18;10.88;;;;;;;6.44;70.95;100765.52;2279646;76;20122;-80
2022/05/08 02:54:02;;;;;;;14.15;10.65;;;;;;;6.42;70.69;100764.34;2278371;77;20983;-83
2022/05/08 03:00:23;;;;;;;17.52;11.43;;;;;;;6.40;70.97;100777.28;2286763;77;21501;-82
2022/05/08 03:03:25;;;;;;;16.23;10.82;;;;;;;6.40;70.90;100780.75;2281786;76;21484;-82
2022/05/08 03:06:25;;;;;;;;;;;;;;;6.31;70.85;100782.81;2282212;76;21450;-83
2022/05/08 03:09:27;;;;;;;18.27;11.25;;;;;;;6.32;71.18;100779.69;2280751;76;20116;-83
2022/05/08 03:12:28;;;;;;;14.90;10.98;;;;;;;6.31;70.97;100792.49;2283536;76;20983;-82
2022/05/08 03:15:30;;;;;;;15.10;10.63;;;;;;;6.23;71.37;100797.91;2279735;77;21024;-83
2022/05/08 03:18:39;;;;;;;17.57;11.60;;;;;;;6.19;71.09;100795.63;2278401;76;21089;-83
2022/05/08 03:21:40;;;;;;;18.00;12.18;;;;;;;6.05;71.17;100793.63;2278597;77;21056;-80
2022/05/08 03:24:42;;;;;;;18.70;11.50;;;;;;;5.93;71.31;100792.39;2282097;76;21014;-82
2022/05/08 03:27:43;;;;;;;20.00;11.83;;;;;;;5.96;71.63;100797.45;2281635;77;21438;-81
2022/05/08 03:30:45;;;;;;;;;;;;;;;6.00;71.59;100794.95;2276627;77;21541;-81
2022/05/08 03:33:46;;;;;;;19.87;12.88;;;;;;;6.04;72.23;100798.52;2285842;76;20122;-82
2022/05/08 03:36:47;;;;;;;20.72;13.10;;;;;;;6.05;72.36;100796.72;2281448;77;21076;-83
2022/05/08 03:39:48;;;;;;;17.42;11.97;;;;;;;6.15;72.37;100796.84;2283789;77;21545;-83
2022/05/08 03:42:51;;;;;;;21.90;13.43;;;;;;;6.32;72.34;100792.87;2275400;76;21011;-82
2022/05/08 03:45:51;;;;;;;;;;;;;;;6.51;72.35;100791.75;2289543;76;21553;-82
2022/05/08 03:48:53;;;;;;;23.47;15.08;;;;;;;6.69;72.33;100792.87;2283790;77;20085;-84
2022/05/08 03:51:54;;;;;;;21.55;13.28;;;;;;;6.95;72.36;100793.86;2283514;76;21084;-81
2022/05/08 03:54:55;;;;;;;25.15;14.80;;;;;;;7.22;71.99;100792.54;2287422;76;21027;-81
2022/05/08 03:57:56;;;;;;;18.90;13.18;;;;;;;7.53;71.88;100788.97;2284203;76;21022;-82
2022/05/08 04:00:57;;;;;;;;;;;;;;;7.86;71.71;100796.30;2287807;77;21034;-81
2022/05/08 04:03:59;;;;;;;21.75;14.15;;;;;;;8.10;71.50;100797.28;2285672;77;20158;-83
2022/05/08 04:07:00;;;;;;;18.92;13.72;;;;;;;8.43;71.43;100793.52;2280321;77;21441;-81
2022/05/08 04:10:02;;;;;;;;;;;;;;;8.80;71.02;100790.70;2289330;77;21010;-84
2022/05/08 04:13:02;;;;;;;;;;;;;;;9.22;70.77;100791.73;2284594;76;20379;-84
2022/05/08 04:16:16;;;;;;;19.65;13.80;;;;;;;9.57;70.15;100799.89;2260555;77;20155;-81
2022/05/08 04:19:17;;;;;;;18.57;13.03;;;;;;;9.87;69.67;100793.50;2285613;76;20964;-81
2022/05/08 04:25:38;;;;;;;17.07;12.03;;;;;;;10.58;69.08;100798.66;2279317;77;21006;-83
2022/05/08 04:28:39;;;;;;;18.32;12.30;;;;;;;11.02;68.60;100795.27;2281830;77;21484;-80
2022/05/08 04:31:40;;;;;;;17.45;12.43;;;;;;;11.25;68.02;100763.23;2285981;76;21031;-83
2022/05/08 04:34:42;;;;;;;18.50;11.57;;;;;;;11.78;67.85;100785.33;2274192;76;21383;-84
2022/05/08 04:37:43;;;;;;;20.20;11.88;;;;;;;12.30;67.41;100790.55;2285215;77;21033;-83
2022/05/08 04:40:44;;;;;;;17.90;12.45;;;;;;;12.78;66.87;100797.83;2285133;77;20964;-83
2022/05/08 04:43:45;;;;;;;20.48;12.95;;;;;;;13.21;66.09;100803.84;2282182;77;20957;-81
2022/05/08 04:46:46;;;;;;;16.85;12.20;;;;;;;13.48;65.40;100799.67;2288333;77;21018;-82
2022/05/08 04:49:48;;;;;;;16.62;12.55;;;;;;;13.95;65.17;100794.89;2288187;77;21589;-82
2022/05/08 04:52:49;;;;;;;20.82;13.78;;;;;;;14.29;64.53;100800.74;2290406;77;21033;-81
2022/05/08 04:55:49;;;;;;;14.93;12.05;;;;;;;14.69;63.79;100804.73;2287114;76;20958;-82
2022/05/08 04:58:51;;;;;;;22.48;13.58;;;;;;;14.87;63.17;100814.63;2294271;77;21006;-83
2022/05/08 05:01:52;;;;;;;17.95;12.15;;;;;;;15.16;62.95;100802.38;2291608;77;21062;-82
2022/05/08 05:04:53;;;;;;;20.48;14.45;;;;;;;15.52;62.03;100805.23;2290381;76;21018;-83
2022/05/08 05:07:54;;;;;;;20.25;14.38;;;;;;;15.89;61.87;100810.22;2294301;77;21363;-84
2022/05/08 05:10:55;;;;;;;17.35;14.40;;;;;;;16.37;60.95;100821.34;2293902;77;21059;-84
2022/05/08 05:13:56;;;;;;;17.82;13.45;;;;;;;16.57;60.34;100821.06;2295414;76;21483;-84
2022/05/08 05:16:58;;;;;;;18.52;14.53;;;;;;;16.71;59.57;100820.70;2296094;77;21499;-83
2022/05/08 05:19:59;;;;;;;20.60;14.60;;;;;;;16.82;59.30;100814.05;2286727;77;21058;-84
2022/05/08 05:23:01;;;;;;;19.07;13.60;;;;;;;17.12;58.79;100829.50;2296605;77;21526;-83
2022/05/08 05:26:03;;;;;;;21.30;15.05;;;;;;;17.57;58.62;100828.73;2293111;76;20971;-84
2022/05/08 05:29:04;;;;;;;21.07;14.25;;;;;;;17.94;57.96;100828.08;2294638;77;21394;-84
2022/05/08 05:32:06;;;;;;;19.12;13.70;;;;;;;18.21;56.77;100829.54;2289350;76;22259;-85
2022/05/08 05:35:07;;;;;;;19.20;13.60;;;;;;;18.29;56.41;100827.52;2293184;77;20993;-83
2022/05/08 05:38:08;;;;;;;18.45;14.33;;;;;;;18.46;55.75;100831.20;2288750;77;20985;-84
2022/05/08 05:41:09;;;;;;;23.77;14.45;;;;;;;18.65;55.54;100836.33;2292448;77;20983;-84
2022/05/08 05:44:11;;;;;;;19.70;14.33;;;;;;;19.08;55.24;100828.78;2290807;77;21121;-83
2022/05/08 05:50:32;;;;;;;21.07;14.50;;;;;;;19.77;53.70;100830.78;2299231;77;21142;-84
2022/05/08 05:53:35;;;;;;;22.13;14.85;;;;;;;20.27;53.63;100830.53;2295831;77;21001;-82
2022/05/08 05:56:36;;;;;;;24.63;15.78;;;;;;;20.67;52.74;100833.59;2298095;76;20982;-84
2022/05/08 05:59:37;;;;;;;19.12;14.55;;;;;;;20.94;51.89;100828.32;2289470;77;21423;-81
2022/05/08 06:02:40;;;;;;;18.65;14.58;;;;;;;21.15;51.14;100833.89;2293004;77;21038;-84
2022/05/08 06:05:41;;;;;;;19.15;14.73;;;;;;;21.13;50.58;100835.98;2300293;77;21089;-83
2022/05/08 06:08:42;;;;;;;25.48;15.18;;;;;;;21.20;50.10;100834.07;2292249;77;20973;-82
2022/05/08 06:11:44;;;;;;;24.10;15.32;;;;;;;21.24;49.97;100844.72;2296190;76;20978;-85
2022/05/08 06:14:46;;;;;;;21.30;15.80;;;;;;;21.45;49.00;100840.83;2297188;76;20904;-82
2022/05/08 06:17:47;;;;;;;22.98;15.28;;;;;;;21.55;48.79;100840.87;2293543;77;21685;-84
2022/05/08 06:20:48;;;;;;;20.35;15.25;;;;;;;21.79;48.29;100841.88;2295786;77;20962;-83
2022/05/08 06:23:49;;;;;;;18.42;15.35;;;;;;;22.17;48.09;100841.68;2285351;76;21590;-86
2022/05/08 06:26:51;;;;;;;18.45;13.95;;;;;;;22.16;47.43;100835.98;2293503;77;21484;-84
2022/05/08 06:29:52;;;;;;;20.32;14.65;;;;;;;22.54;47.15;100850.60;2295643;77;20939;-84
2022/05/08 06:32:53;;;;;;;15.88;13.15;;;;;;;22.70;46.49;100849.15;2288580;76;20997;-85
2022/05/08 06:35:54;;;;;;;17.62;13.00;;;;;;;22.92;45.98;100847.27;2295106;77;20954;-83
2022/05/08 06:38:56;;;;;;;17.25;12.80;;;;;;;23.01;45.56;100850.81;2296919;77;21317;-85
2022/05/08 06:41:57;;;;;;;17.45;13.88;;;;;;;23.13;45.10;100855.43;2296243;76;20993;-85
2022/05/08 06:45:00;;;;;;;16.17;12.40;;;;;;;23.27;44.69;100856.34;2294224;76;21038;-82
2022/05/08 06:48:01;;;;;;;17.48;12.93;;;;;;;23.63;44.17;100855.03;2289663;77;21093;-83
2022/05/08 06:51:03;;;;;;;16.62;13.05;;;;;;;23.73;43.62;100855.81;2285076;76;21484;-84
2022/05/08 06:54:04;;;;;;;18.52;12.55;;;;;;;23.80;43.42;100865.48;2278916;77;20936;-84
2022/05/08 06:57:05;;;;;;;17.62;12.60;;;;;;;23.68;43.03;100861.89;2283457;77;22241;-83
2022/05/08 07:03:27;;;;;;;20.00;13.53;;;;;;;23.97;42.16;100860.16;2270596;77;20987;-85
2022/05/08 07:06:29;;;;;;;14.43;11.40;;;;;;;24.05;42.46;100861.16;2282468;77;20967;-83
2022/05/08 07:09:33;;;;;;;16.85;11.60;;;;;;;24.16;42.21;100852.19;2279726;77;21077;-86
2022/05/08 07:12:38;;;;;;;12.90;11.50;;;;;;;24.56;42.25;100857.35;2277882;77;21681;-84
2022/05/08 07:15:40;;;;;;;14.47;11.48;;;;;;;24.94;41.62;100851.26;2282600;77;21031;-82
2022/05/08 07:18:41;;;;;;;14.75;10.60;;;;;;;24.90;40.74;100846.05;2282238;77;21039;-83
2022/05/08 07:21:42;;;;;;;15.30;10.98;;;;;;;24.85;40.77;100853.27;2281679;77;21002;-82
2022/05/08 07:24:44;;;;;;;14.10;9.53;;;;;;;24.86;40.82;100856.27;2286403;77;21034;-83
2022/05/08 07:27:46;;;;;;;15.23;10.40;;;;;;;25.17;40.47;100853.08;2272568;77;20998;-86
2022/05/08 07:30:49;;;;;;;13.98;9.10;;;;;;;25.43;40.07;100854.84;2283857;77;20964;-84
2022/05/08 07:36:12;;;;;;;12.03;8.68;;;;;;;25.68;39.62;100853.06;2252893;77;21011;-85
2022/05/08 07:36:53;;;;;;;10.53;8.58;;;;;;;25.90;38.74;100849.02;2275487;77;22253;-84
2022/05/08 07:39:54;;;;;;;10.78;8.90;;;;;;;25.88;38.98;100850.66;2279947;77;21084;-84
2022/05/08 07:42:55;;;;;;;11.80;8.78;;;;;;;26.11;38.43;100850.95;2282754;77;20951;-84
2022/05/08 07:45:57;;;;;;;12.45;9.38;;;;;;;26.26;38.02;100852.22;2279472;76;21569;-84
2022/05/08 07:48:58;;;;;;;9.43;8.20;;;;;;;26.37;37.96;100854.80;2282184;76;21007;-85
2022/05/08 07:52:00;;;;;;;9.85;7.80;;;;;;;26.64;37.72;100849.14;2286557;77;21019;-84
2022/05/08 07:55:01;;;;;;;11.22;7.42;;;;;;;26.98;36.74;100853.86;2294232;76;21017;-84
2022/05/08 07:58:02;;;;;;;13.43;7.70;;;;;;;27.03;36.51;100852.52;2286569;77;20994;-84
2022/05/08 08:01:05;;;;;;;10.30;7.97;;;;;;;26.82;35.87;100857.78;2264390;77;20944;-86
2022/05/08 08:04:10;;;;;;;10.72;7.67;;;;;;;26.95;35.91;100857.92;2289965;76;21090;-84
2022/05/08 08:07:11;;;;;;;9.50;7.78;;;;;;;27.17;35.88;100861.13;2278348;77;21008;-85
2022/05/08 08:10:15;;;;;;;10.45;7.80;;;;;;;27.37;35.64;100860.47;2288064;77;20928;-83
2022/05/08 08:13:16;;;;;;;13.48;7.42;;;;;;;27.55;35.04;100855.17;2285874;77;21025;-85
2022/05/08 08:16:19;;;;;;;13.20;7.70;;;;;;;27.48;35.31;100860.82;2280886;77;21577;-85
2022/05/08 08:19:20;;;;;;;10.00;7.40;;;;;;;27.78;35.05;100860.77;2284593;76;20991;-85
2022/05/08 08:22:23;;;;;;;10.72;6.92;;;;;;;27.94;34.54;100859.80;2295635;77;21042;-84
2022/05/08 08:25:25;;;;;;;9.18;6.25;;;;;;;27.99;34.40;100859.84;2290069;76;21009;-85
2022/05/08 08:28:27;;;;;;;12.28;7.30;;;;;;;28.10;34.20;100865.62;2296253;77;20975;-84
2022/05/08 08:31:28;;;;;;;10.72;7.60;;;;;;;28.09;33.88;100868.59;2290292;77;21423;-84
2022/05/08 08:34:29;;;;;;;9.83;5.83;;;;;;;27.81;32.99;100859.72;2287092;76;21531;-83
2022/05/08 08:37:30;;;;;;;10.32;6.10;;;;;;;27.19;33.42;100865.23;2279054;77;21034;-85
2022/05/08 08:40:34;;;;;;;8.05;5.42;;;;;;;27.43;33.71;100871.16;2292067;76;21029;-84
2022/05/08 08:50:26;;;;;;;8.40;6.15;;;;;;;27.21;33.40;100871.80;2287935;77;21034;-84
2022/05/08 08:53:29;;;;;;;9.70;5.60;;;;;;;27.23;33.04;100874.55;2270602;77;20990;-83
2022/05/08 08:56:31;;;;;;;7.25;5.30;;;;;;;27.22;33.33;100875.61;2270411;77;21007;-84
2022/05/08 08:59:33;;;;;;;7.22;4.83;;;;;;;27.30;32.68;100874.86;2279067;77;21049;-85
2022/05/08 09:02:34;;;;;;;10.65;5.33;;;;;;;27.37;32.82;100868.64;2272501;77;20973;-85
2022/05/08 09:05:36;;;;;;;7.08;5.62;;;;;;;27.56;32.74;100878.05;2280879;76;21097;-85
2022/05/08 09:08:37;;;;;;;7.40;4.47;;;;;;;27.64;32.64;100881.66;2272273;77;21440;-85
2022/05/08 09:11:38;;;;;;;7.33;4.03;;;;;;;27.65;32.34;100875.66;2278359;77;20952;-85
2022/05/08 09:14:40;;;;;;;6.22;4.20;;;;;;;27.56;31.97;100872.61;2268672;77;21030;-84
2022/05/08 09:17:45;;;;;;;5.58;4.90;;;;;;;27.86;32.02;100873.94;2275933;77;21054;-84
2022/05/08 09:20:48;;;;;;;8.03;5.08;;;;;;;28.08;31.83;100872.42;2268429;77;20978;-85
2022/05/08 09:24:07;;;;;;;5.62;4.00;;;;;;;27.45;31.00;100868.16;2278971;77;21450;-85
2022/05/08 09:27:13;;;;;;;7.67;3.85;;;;;;;27.08;31.93;100866.19;2273981;77;21061;-82
2022/05/08 09:30:15;;;;;;;7.45;4.25;;;;;;;26.79;31.96;100869.19;2275179;77;21041;-84
2022/05/08 09:33:33;;;;;;;7.00;4.62;;;;;;;26.75;31.98;100869.43;2275034;77;21033;-85
2022/05/08 09:36:35;;;;;;;6.53;5.25;;;;;;;26.83;32.54;100868.13;2253895;77;21054;-84
2022/05/08 09:39:36;;;;;;;5.67;4.30;;;;;;;26.90;32.14;100869.30;2266648;77;21021;-84
2022/05/08 09:42:38;;;;;;;4.30;3.25;;;;;;;26.69;32.03;100866.34;2269793;77;20967;-84
2022/05/08 09:45:45;;;;;;;9.58;4.47;;;;;;;26.62;32.01;100868.46;2278123;77;21045;-83
2022/05/08 09:48:48;;;;;;;4.10;3.10;;;;;;;26.87;32.04;100867.09;2273569;77;21050;-82
2022/05/08 09:51:51;;;;;;;5.90;2.77;;;;;;;27.02;31.53;100872.67;2230412;77;21008;-85
2022/05/08 09:54:52;;;;;;;6.10;2.60;;;;;;;27.11;31.03;100860.22;2226573;79;21042;-85
2022/05/08 09:57:54;;;;;;;9.13;3.35;;;;;;;26.74;29.74;100863.68;2224534;79;21014;-85
2022/05/08 10:00:56;;;;;;;3.95;3.30;;;;;;;26.55;30.77;100866.46;2224906;79;21124;-83
2022/05/08 10:03:59;;;;;;;9.35;5.25;;;;;;;26.62;30.94;100867.09;2224899;79;21035;-83
2022/05/08 10:07:00;;;;;;;6.15;5.00;;;;;;;26.49;32.00;100868.81;2223268;79;20991;-85
2022/05/08 10:14:00;;;;;;;8.08;4.90;;;;;;;26.42;32.76;100861.41;2224735;79;21494;-85
2022/05/08 10:17:07;;;;;;;5.65;4.60;;;;;;;26.34;33.23;100866.20;2223350;79;21038;-86
2022/05/08 10:20:09;;;;;;;7.78;4.85;;;;;;;26.25;33.39;100863.64;2223301;79;21000;-84
2022/05/08 10:23:33;;;;;;;8.10;4.70;;;;;;;26.08;32.78;100861.52;2226029;79;21007;-85
2022/05/08 10:26:34;;;;;;;7.95;4.58;;;;;;;24.92;32.99;100861.56;2221990;79;21070;-83
2022/05/08 10:29:35;;;;;;;7.40;5.05;;;;;;;24.39;33.92;100862.14;2225388;79;21047;-84
2022/05/08 10:32:48;;;;;;;7.67;4.78;;;;;;;24.12;34.51;100867.80;2223341;78;20974;-84
2022/05/08 10:36:07;;;;;;;7.53;5.20;;;;;;;23.91;34.81;100866.00;2222549;79;21472;-84
2022/05/08 10:39:36;;;;;;;7.42;5.30;;;;;;;23.60;35.20;100867.16;2220181;79;21776;-84
2022/05/08 10:42:42;;;;;;;8.78;4.70;;;;;;;23.15;35.79;100869.03;2215894;79;20999;-85
2022/05/08 10:45:44;;;;;;;7.42;5.03;;;;;;;22.88;36.39;100865.03;2221846;79;21016;-83
2022/05/08 10:48:46;;;;;;;7.25;5.25;;;;;;;22.81;36.79;100867.31;2224524;79;20959;-84
2022/05/08 10:51:47;;;;;;;7.00;5.20;;;;;;;23.13;37.18;100864.37;2257362;77;21624;-85
2022/05/08 10:55:01;;;;;;;7.12;4.60;;;;;;;23.37;37.17;100864.41;2273453;76;21124;-83
2022/05/08 10:58:02;;;;;;;6.90;4.62;;;;;;;24.04;36.77;100860.84;2270051;76;20988;-85
2022/05/08 11:01:09;;;;;;;8.58;4.80;;;;;;;23.67;37.23;100862.43;2246424;76;20996;-84
2022/05/08 11:04:11;;;;;;;12.00;5.33;;;;;;;23.33;37.37;100860.53;2267490;77;21008;-85
2022/05/08 11:07:11;;;;;;;6.60;5.03;;;;;;;23.07;37.86;100857.19;2268297;77;21079;-85
2022/05/08 11:10:26;;;;;;;5.40;4.55;;;;;;;22.83;37.83;100859.80;2261915;77;21077;-84
2022/05/08 11:13:44;;;;;;;7.70;5.08;;;;;;;22.62;38.21;100869.75;2272940;76;20982;-84
2022/05/08 11:16:46;;;;;;;5.30;3.95;;;;;;;22.51;38.22;100865.93;2264695;77;21075;-83
2022/05/08 11:19:53;;;;;;;6.20;4.40;;;;;;;22.37;38.02;100858.51;2274069;77;21543;-84
2022/05/08 11:22:56;;;;;;;5.87;4.20;;;;;;;22.16;38.41;100858.42;2273460;76;21426;-85
2022/05/08 11:26:01;;;;;;;8.93;3.83;;;;;;;22.14;38.65;100852.94;2275612;77;20972;-85
2022/05/08 11:29:03;;;;;;;5.12;4.10;;;;;;;22.21;38.40;100853.70;2274328;76;21067;-84
2022/05/08 11:39:05;;;;;;;6.47;4.30;;;;;;;22.33;38.49;100845.69;2279927;77;21019;-82
2022/05/08 11:42:07;;;;;;;7.95;5.80;;;;;;;22.18;39.42;100848.75;2271112;76;21096;-83
2022/05/08 11:45:09;;;;;;;8.40;5.42;;;;;;;22.00;40.33;100850.91;2267670;77;21427;-84
2022/05/08 11:48:10;;;;;;;7.78;5.70;;;;;;;21.89;41.14;100859.23;2269067;77;21552;-83
2022/05/08 11:51:14;;;;;;;6.03;5.42;;;;;;;21.74;41.02;100853.36;2265412;77;21109;-82
2022/05/08 11:54:36;;;;;;;7.42;5.50;;;;;;;21.96;42.07;100857.80;2275588;76;21009;-83
2022/05/08 11:57:45;;;;;;;7.28;5.70;;;;;;;22.30;43.16;100861.83;2273261;76;20993;-85
2022/05/08 12:00:46;;;;;;;9.58;5.97;;;;;;;22.58;43.63;100869.89;2269677;77;20999;-83
2022/05/08 12:03:48;;;;;;;8.30;5.87;;;;;;;22.44;43.19;100865.20;2272760;77;21001;-82
2022/05/08 12:07:04;;;;;;;7.30;6.10;;;;;;;22.29;43.73;100864.75;2275570;77;21011;-85
2022/05/08 12:10:06;;;;;;;7.75;5.80;;;;;;;22.08;43.78;100864.66;2282592;77;20940;-84
2022/05/08 12:13:07;;;;;;;10.98;6.30;;;;;;;21.80;44.05;100861.92;2270599;77;21543;-81
2022/05/08 12:16:18;;;;;;;8.93;6.35;;;;;;;21.61;44.58;100861.05;2274523;77;20950;-82
2022/05/08 12:19:19;;;;;;;10.15;8.13;;;;;;;21.42;44.93;100857.47;2274909;76;21002;-81
2022/05/08 12:22:24;;;;;;;10.72;6.28;;;;;;;21.43;45.38;100857.79;2270401;76;20966;-84
2022/05/08 12:25:26;;;;;;;9.18;7.75;;;;;;;21.28;45.62;100852.66;2276935;77;20937;-83
2022/05/08 12:28:27;;;;;;;8.10;5.67;;;;;;;21.59;45.71;100854.22;2276230;77;21073;-82
2022/05/08 12:31:28;;;;;;;14.38;7.33;;;;;;;21.71;45.53;100855.98;2278501;77;21059;-80
2022/05/08 12:34:29;;;;;;;7.15;5.22;;;;;;;21.93;44.93;100857.75;2276968;77;20982;-84
2022/05/08 12:37:30;;;;;;;10.85;6.92;;;;;;;22.00;43.62;100861.72;2273446;77;21510;-82
2022/05/08 12:40:32;;;;;;;28.65;18.48;;;;;;;21.76;44.09;100859.88;2269450;77;21033;-81
2022/05/08 12:43:34;;;;;;;8.35;6.28;;;;;;;21.78;43.84;100857.79;2272384;76;21069;-84
2022/05/08 12:46:35;;;;;;;11.40;6.40;;;;;;;21.44;42.61;100852.69;2278812;76;21628;-82
2022/05/08 12:49:39;;;;;;;7.97;4.80;;;;;;;21.03;43.34;100849.97;2267120;76;20915;-83
2022/05/08 12:52:45;;;;;;;8.80;5.72;;;;;;;20.89;44.21;100852.45;2281734;77;21035;-83
2022/05/08 12:55:44;;;;;;;7.95;6.50;;;;;;;21.01;44.89;100849.88;2276989;77;20994;-83
2022/05/08 13:02:06;;;;;;;44.80;29.20;;;;;;;20.93;44.19;100848.26;2272998;77;21146;-84
2022/05/08 13:05:08;;;;;;;24.25;17.70;;;;;;;20.98;44.23;100851.14;2276676;77;21604;-83
2022/05/08 13:08:09;;;;;;;12.95;8.98;;;;;;;21.08;44.73;100857.91;2281321;77;20979;-82
2022/05/08 13:11:10;;;;;;;7.75;5.95;;;;;;;21.19;44.48;100853.98;2268595;76;21493;-83
2022/05/08 13:14:12;;;;;;;8.28;5.08;;;;;;;21.15;44.47;100852.78;2272762;77;21068;-81
2022/05/08 13:17:13;;;;;;;13.95;6.97;;;;;;;21.15;44.50;100854.66;2271306;76;20994;-84
2022/05/08 13:20:15;;;;;;;6.55;4.22;;;;;;;21.07;44.37;100854.39;2274237;77;21049;-80
2022/05/08 13:23:16;;;;;;;7.25;4.17;;;;;;;21.13;44.80;100850.82;2271294;77;21057;-83
2022/05/08 13:26:17;;;;;;;6.37;3.90;;;;;;;21.30;45.13;100848.94;2275100;77;21006;-80
2022/05/08 13:29:18;;;;;;;4.53;3.75;;;;;;;21.14;44.59;100851.64;2281159;76;21020;-84
2022/05/08 13:32:20;;;;;;;6.95;4.10;;;;;;;20.92;44.45;100850.66;2281769;76;20971;-83
2022/05/08 13:35:21;;;;;;;8.13;4.03;;;;;;;20.84;44.21;100842.83;2265806;77;21026;-81
2022/05/08 13:38:26;;;;;;;7.20;3.60;;;;;;;20.71;44.79;100849.11;2277682;76;21030;-82
2022/05/08 13:41:27;;;;;;;7.95;3.60;;;;;;;20.70;45.02;100846.64;2271496;77;21359;-84
2022/05/08 13:44:28;;;;;;;4.78;3.67;;;;;;;20.69;44.72;100852.53;2277030;76;21008;-82
2022/05/08 13:47:29;;;;;;;3.47;3.15;;;;;;;20.59;45.01;100842.75;2268784;76;20964;-82
2022/05/08 13:50:31;;;;;;;5.22;3.27;;;;;;;20.77;45.24;100840.67;2270520;76;20913;-84
2022/05/08 13:53:33;;;;;;;4.25;2.98;;;;;;;20.79;44.89;100834.55;2292912;77;21014;-83
2022/05/08 13:56:34;;;;;;;3.65;2.90;;;;;;;20.81;44.77;100832.47;2288275;77;20966;-85
2022/05/08 13:59:36;;;;;;;7.60;2.95;;;;;;;20.89;44.73;100832.22;2287170;77;21049;-81
2022/05/08 14:02:37;;;;;;;4.33;2.80;;;;;;;21.08;44.53;100829.59;2290884;76;21054;-84
2022/05/08 14:05:39;;;;;;;4.72;2.55;;;;;;;21.17;44.52;100826.91;2282485;77;20976;-81
2022/05/08 14:08:40;;;;;;;5.92;3.10;;;;;;;21.40;44.16;100833.94;2290724;76;21010;-83
2022/05/08 14:11:41;;;;;;;3.52;2.72;;;;;;;21.53;43.78;100825.41;2285548;77;20985;-87
2022/05/08 14:14:42;;;;;;;2.47;2.27;;;;;;;21.47;43.59;100833.87;2287611;77;20977;-82
2022/05/08 14:17:44;;;;;;;5.10;2.70;;;;;;;21.48;43.46;100828.77;2291992;77;21044;-83
2022/05/08 14:20:46;;;;;;;3.98;2.80;;;;;;;21.47;43.25;100827.94;2294976;77;20987;-82
2022/05/08 14:23:48;;;;;;;4.75;2.62;;;;;;;21.36;42.99;100834.03;2290283;77;21039;-85
2022/05/08 14:26:49;;;;;;;2.92;2.30;;;;;;;21.17;43.23;100827.73;2283580;77;20934;-82
2022/05/08 14:29:52;;;;;;;4.58;2.27;;;;;;;21.21;43.41;100829.50;2295657;77;21553;-84
2022/05/08 14:36:13;;;;;;;3.05;2.72;;;;;;;21.31;43.45;100827.11;2287342;77;21648;-83
2022/05/08 14:39:14;;;;;;;2.75;2.30;;;;;;;21.23;43.22;100824.69;2288762;77;21045;-84
2022/05/08 14:42:15;;;;;;;2.72;2.12;;;;;;;21.16;43.19;100821.22;2286252;77;21100;-85
2022/05/08 14:45:16;;;;;;;3.20;2.15;;;;;;;21.33;43.54;100825.03;2286814;77;21018;-85
2022/05/08 14:48:18;;;;;;;4.22;2.40;;;;;;;21.39;43.37;100820.13;2289330;77;21086;-82